Time;durP1;ratioP1;P1;durP2;ratioP2;P2;SDS_P1;SDS_P2;PMS_P1;PMS_P2;Temp;Humidity;BMP_temperature;BMP_pressure;BME280_temperature;BME280_humidity;BME280_pressure;Samples;Min_cycle;Max_cycle;Signal;HPM_P1;HPM_P2
2022/10/25 00:01:32;;;;;;;8.80;2.40;;;;;;;13.67;90.49;100129.44;51639;1310;1016217;-81
2022/10/25 00:04:04;;;;;;;11.60;2.80;;;;;;;13.64;90.39;100128.25;51829;1308;1019500;-79
2022/10/25 00:06:35;;;;;;;11.30;3.40;;;;;;;13.62;90.30;100125.68;51673;1304;1016014;-79
2022/10/25 00:09:07;;;;;;;12.60;3.00;;;;;;;13.61;90.37;100128.23;51774;1310;1016129;-80
2022/10/25 00:11:38;;;;;;;10.70;2.30;;;;;;;13.59;90.25;100132.55;51828;1310;1016256;-78
2022/10/25 00:14:14;;;;;;;14.50;2.80;;;;;;;13.56;90.14;100132.84;51545;1310;1015968;-80
2022/10/25 00:16:45;;;;;;;16.20;2.90;;;;;;;13.51;90.09;100134.77;51491;1310;1015756;-79
2022/10/25 00:19:17;;;;;;;12.00;3.30;;;;;;;13.47;89.98;100131.93;51534;1309;1016284;-80
2022/10/25 00:21:50;;;;;;;11.60;2.60;;;;;;;13.43;89.88;100131.51;51492;1310;1016773;-79
2022/10/25 00:24:21;;;;;;;8.80;2.70;;;;;;;13.38;89.89;100129.23;51646;1310;1016162;-79
2022/10/25 00:26:52;;;;;;;14.80;3.40;;;;;;;13.34;89.89;100135.17;51631;1296;1016207;-79
2022/10/25 00:29:23;;;;;;;8.70;2.30;;;;;;;13.30;89.79;100133.11;51541;1280;1016080;-80
2022/10/25 00:31:55;;;;;;;12.10;2.80;;;;;;;13.25;89.62;100131.80;51645;1310;1016388;-80
2022/10/25 00:34:26;;;;;;;10.40;2.60;;;;;;;13.22;89.66;100135.19;51559;1310;1016126;-79
2022/10/25 00:36:57;;;;;;;8.80;2.90;;;;;;;13.19;89.41;100135.17;51644;1310;1016471;-80
2022/10/25 00:39:29;;;;;;;11.40;3.20;;;;;;;13.11;89.28;100134.41;51576;1304;1016308;-80
2022/10/25 00:42:01;;;;;;;11.90;3.20;;;;;;;13.01;89.01;100133.61;51586;1304;1016763;-80
2022/10/25 00:44:52;;;;;;;14.20;3.60;;;;;;;12.92;89.08;100131.14;51508;1303;1016006;-80
2022/10/25 00:47:46;;;;;;;13.20;2.80;;;;;;;12.81;88.87;100133.58;51536;1310;1015899;-79
2022/10/25 00:50:42;;;;;;;10.10;2.70;;;;;;;12.71;88.98;100134.27;51570;1310;1016143;-79
2022/10/25 00:53:18;;;;;;;11.10;2.60;;;;;;;12.60;88.85;100133.31;51583;1310;1016129;-79
2022/10/25 00:55:57;;;;;;;11.30;2.70;;;;;;;12.51;88.85;100132.52;51631;1310;1016383;-80
2022/10/25 00:58:32;;;;;;;10.00;2.80;;;;;;;12.43;88.75;100139.16;51650;1288;1015820;-79
2022/10/25 01:01:06;;;;;;;13.20;3.60;;;;;;;12.35;88.72;100139.48;51637;1310;1016341;-80
2022/10/25 01:03:39;;;;;;;17.10;3.30;;;;;;;12.31;88.65;100140.05;51640;1309;1016152;-79
2022/10/25 01:06:17;;;;;;;15.90;3.20;;;;;;;12.29;88.67;100133.36;51570;1310;1015991;-80
2022/10/25 01:08:51;;;;;;;10.80;3.20;;;;;;;12.28;88.80;100134.42;51541;1312;1015807;-78
2022/10/25 01:11:23;;;;;;;11.30;4.40;;;;;;;12.27;88.65;100135.92;51644;1296;1016396;-78
2022/10/25 01:13:56;;;;;;;13.10;4.20;;;;;;;12.24;88.68;100137.17;51683;1312;1015989;-79
2022/10/25 01:16:32;;;;;;;17.80;4.60;;;;;;;12.22;88.66;100136.54;51471;1312;1016797;-80
2022/10/25 01:19:20;;;;;;;13.20;4.10;;;;;;;12.20;88.66;100137.30;51568;1303;1019451;-80
2022/10/25 01:21:55;;;;;;;12.70;3.70;;;;;;;12.17;88.73;100135.39;51630;1310;1016398;-80
2022/10/25 01:25:11;;;;;;;15.60;5.10;;;;;;;12.15;88.55;100133.22;51623;1286;1016221;-79
2022/10/25 01:27:57;;;;;;;17.40;6.60;;;;;;;12.08;88.31;100130.94;51294;1320;1016700;-80
2022/10/25 01:30:42;;;;;;;20.10;6.30;;;;;;;11.96;88.49;100128.83;51138;1320;1016355;-80
2022/10/25 01:33:22;;;;;;;17.70;6.20;;;;;;;11.86;88.39;100125.24;51223;1317;1016099;-80
2022/10/25 01:36:01;;;;;;;15.00;6.10;;;;;;;11.78;88.50;100124.04;51193;1318;1015720;-80
2022/10/25 01:38:40;;;;;;;15.70;5.20;;;;;;;11.71;88.55;100127.76;51246;1319;1016260;-80
2022/10/25 01:41:25;;;;;;;15.50;5.00;;;;;;;11.62;88.51;100132.24;51183;1296;1016821;-80
2022/10/25 01:44:11;;;;;;;12.40;3.60;;;;;;;11.54;88.67;100129.29;51166;1295;1015863;-80
2022/10/25 01:46:51;;;;;;;10.50;3.40;;;;;;;11.49;88.66;100131.67;51124;1320;1016161;-80
2022/10/25 01:49:29;;;;;;;11.50;3.10;;;;;;;11.45;88.89;100131.00;51112;1295;1015730;-80
2022/10/25 01:52:00;;;;;;;12.90;3.60;;;;;;;11.45;89.17;100129.33;51286;1320;1016307;-80
2022/10/25 01:54:31;;;;;;;9.60;3.30;;;;;;;11.47;89.12;100132.31;51201;1317;1016081;-79
2022/10/25 01:57:11;;;;;;;12.50;3.90;;;;;;;11.47;88.68;100132.55;51159;1319;1016499;-80
2022/10/25 02:00:06;;;;;;;12.10;3.50;;;;;;;11.42;88.45;100134.06;51149;1313;1018546;-79
2022/10/25 02:02:49;;;;;;;13.70;3.00;;;;;;;11.33;88.50;100134.65;51216;1319;1016294;-80
2022/10/25 02:05:38;;;;;;;12.80;2.90;;;;;;;11.26;88.58;100132.58;51408;1296;1016017;-80
2022/10/25 02:08:17;;;;;;;13.80;3.40;;;;;;;11.22;88.52;100133.27;51507;1312;1016246;-80
2022/10/25 02:10:57;;;;;;;12.20;3.50;;;;;;;11.15;88.34;100132.51;51492;1311;1016828;-79
2022/10/25 02:13:33;;;;;;;9.50;2.90;;;;;;;11.08;88.47;100138.15;51533;1304;1016216;-79
2022/10/25 02:16:10;;;;;;;16.00;4.20;;;;;;;11.04;88.47;100138.48;51569;1312;1016508;-79
2022/10/25 02:18:46;;;;;;;19.20;5.50;;;;;;;11.03;88.61;100143.24;51637;1311;1016428;-79
2022/10/25 02:21:18;;;;;;;18.10;6.10;;;;;;;11.01;88.55;100148.19;51567;1310;1016262;-79
2022/10/25 02:23:52;;;;;;;24.00;8.10;;;;;;;11.01;88.49;100143.20;51600;1309;1015918;-79
2022/10/25 02:26:25;;;;;;;23.40;8.00;;;;;;;10.98;88.51;100145.10;51503;1311;1017565;-79
2022/10/25 02:28:57;;;;;;;23.00;7.80;;;;;;;10.95;88.55;100143.78;51663;1312;1015757;-79
2022/10/25 02:31:31;;;;;;;22.80;6.70;;;;;;;10.94;88.68;100141.02;51727;1309;1016066;-79
2022/10/25 02:34:03;;;;;;;19.80;6.20;;;;;;;10.93;88.58;100138.67;51863;1309;1016519;-80
2022/10/25 02:36:35;;;;;;;15.60;6.00;;;;;;;10.92;88.65;100141.05;52001;1309;1016863;-79
2022/10/25 02:39:08;;;;;;;19.30;7.60;;;;;;;10.92;88.68;100138.91;52254;1311;1016405;-79
2022/10/25 02:41:39;;;;;;;17.20;6.90;;;;;;;10.88;88.59;100138.73;51987;1306;1016337;-80
2022/10/25 02:44:12;;;;;;;15.60;7.50;;;;;;;10.85;88.70;100144.08;51868;1311;1016362;-79
2022/10/25 02:46:44;;;;;;;16.10;7.70;;;;;;;10.79;88.43;100144.34;51825;1310;1019774;-80
2022/10/25 02:49:15;;;;;;;15.60;6.90;;;;;;;10.73;88.43;100141.89;51808;1309;1016029;-80
2022/10/25 02:51:47;;;;;;;17.40;6.50;;;;;;;10.67;88.53;100149.71;51673;1286;1018120;-80
2022/10/25 02:54:18;;;;;;;15.40;5.20;;;;;;;10.61;88.52;100151.70;51472;1309;1016241;-80
2022/10/25 02:56:51;;;;;;;12.90;4.80;;;;;;;10.60;88.73;100147.31;51633;1305;1020007;-79
2022/10/25 02:59:22;;;;;;;15.70;5.30;;;;;;;10.56;88.73;100149.48;51479;1310;1016151;-79
2022/10/25 03:01:54;;;;;;;8.90;3.20;;;;;;;10.57;89.11;100146.60;51599;1312;1016890;-79
2022/10/25 03:04:25;;;;;;;8.70;2.40;;;;;;;10.57;89.12;100147.88;51591;1309;1015576;-80
2022/10/25 03:06:57;;;;;;;12.00;3.10;;;;;;;10.56;89.15;100146.38;51527;1288;1016280;-80
2022/10/25 03:09:28;;;;;;;12.00;3.30;;;;;;;10.56;89.40;100148.70;51491;1312;1016237;-79
2022/10/25 03:12:00;;;;;;;10.90;2.60;;;;;;;10.55;89.46;100148.96;51687;1312;1015527;-80
2022/10/25 03:14:31;;;;;;;8.70;2.50;;;;;;;10.55;89.62;100152.00;51621;1312;1015991;-80
2022/10/25 03:17:02;;;;;;;10.40;3.00;;;;;;;10.55;89.81;100153.17;51823;1312;1015726;-80
2022/10/25 03:19:34;;;;;;;10.00;3.00;;;;;;;10.54;89.91;100153.05;51588;1312;1017956;-80
2022/10/25 03:22:05;;;;;;;12.80;3.30;;;;;;;10.54;90.23;100148.84;51642;1309;1016493;-80
2022/10/25 03:24:37;;;;;;;12.60;3.30;;;;;;;10.55;90.33;100149.55;51848;1312;1016140;-80
2022/10/25 03:27:08;;;;;;;8.80;2.40;;;;;;;10.59;90.60;100147.45;51789;1312;1016509;-80
2022/10/25 03:29:39;;;;;;;9.80;2.80;;;;;;;10.63;90.70;100149.94;51681;1312;1016524;-80
2022/10/25 03:32:10;;;;;;;8.70;2.40;;;;;;;10.66;90.69;100147.05;51737;1310;1016069;-80
2022/10/25 03:34:42;;;;;;;11.50;2.50;;;;;;;10.70;90.67;100144.75;51640;1312;1016277;-80
2022/10/25 03:37:13;;;;;;;11.30;2.90;;;;;;;10.74;90.81;100144.39;51893;1312;1015533;-81
2022/10/25 03:39:44;;;;;;;8.50;2.50;;;;;;;10.75;90.68;100144.66;51879;1293;1016235;-80
2022/10/25 03:42:16;;;;;;;9.60;2.30;;;;;;;10.75;90.78;100146.50;51648;1312;1016213;-80
2022/10/25 03:44:47;;;;;;;15.10;2.80;;;;;;;10.73;90.60;100141.50;51861;1310;1015882;-80
2022/10/25 03:47:18;;;;;;;9.00;2.20;;;;;;;10.69;90.57;100144.07;51600;1309;1016180;-80
2022/10/25 03:49:50;;;;;;;10.70;2.40;;;;;;;10.65;90.42;100143.34;51657;1309;1016178;-79
2022/10/25 03:52:21;;;;;;;6.90;2.10;;;;;;;10.60;90.45;100144.42;51642;1310;1019721;-78
2022/10/25 03:54:52;;;;;;;7.80;2.40;;;;;;;10.55;90.12;100141.65;51533;1309;1017368;-79
2022/10/25 03:57:23;;;;;;;9.90;2.50;;;;;;;10.51;90.20;100141.13;51693;1311;1016578;-79
2022/10/25 03:59:56;;;;;;;12.30;2.20;;;;;;;10.51;90.27;100140.36;51510;1312;1016533;-78
2022/10/25 04:02:28;;;;;;;8.10;2.50;;;;;;;10.50;90.06;100135.63;51713;1299;1016488;-78
2022/10/25 04:04:59;;;;;;;8.10;2.00;;;;;;;10.50;90.26;100134.85;51604;1309;1016529;-78
2022/10/25 04:07:30;;;;;;;9.10;2.20;;;;;;;10.49;90.14;100136.73;51552;1309;1019036;-79
2022/10/25 04:10:02;;;;;;;9.60;2.40;;;;;;;10.49;90.43;100135.61;51662;1311;1016472;-80
2022/10/25 04:12:33;;;;;;;11.80;2.70;;;;;;;10.50;90.60;100134.66;51855;1310;1016093;-80
2022/10/25 04:15:06;;;;;;;7.90;2.30;;;;;;;10.51;90.72;100138.80;51672;1312;1016055;-80
2022/10/25 04:17:38;;;;;;;10.00;1.90;;;;;;;10.51;90.70;100142.84;51901;1312;1016099;-80
2022/10/25 04:20:10;;;;;;;11.40;2.70;;;;;;;10.51;90.78;100145.08;51689;1312;1016275;-80
2022/10/25 04:22:42;;;;;;;11.10;2.30;;;;;;;10.50;91.07;100147.25;51803;1310;1018007;-80
2022/10/25 04:25:13;;;;;;;10.90;2.40;;;;;;;10.52;91.33;100147.14;51696;1310;1016553;-81
2022/10/25 04:27:44;;;;;;;7.30;2.10;;;;;;;10.55;91.28;100148.80;52007;1310;1016079;-81
2022/10/25 04:30:18;;;;;;;10.10;2.60;;;;;;;10.58;91.17;100148.70;51763;1310;1015917;-81
2022/10/25 04:32:53;;;;;;;7.50;2.20;;;;;;;10.60;91.11;100145.53;51907;1312;1015785;-81
2022/10/25 04:35:31;;;;;;;7.80;1.80;;;;;;;10.63;91.25;100146.20;51855;1310;1016555;-81
2022/10/25 04:38:07;;;;;;;7.40;1.90;;;;;;;10.63;91.13;100149.17;52044;1312;1016183;-81
2022/10/25 04:40:40;;;;;;;10.20;3.00;;;;;;;10.60;91.00;100155.98;52065;1294;1016306;-81
2022/10/25 04:43:15;;;;;;;9.40;2.10;;;;;;;10.57;91.16;100155.73;51796;1310;1015815;-82
2022/10/25 04:45:47;;;;;;;12.30;2.60;;;;;;;10.56;91.24;100153.14;51789;1313;1015465;-81
2022/10/25 04:48:18;;;;;;;8.20;2.00;;;;;;;10.58;91.45;100161.95;51863;1312;1017382;-81
2022/10/25 04:50:49;;;;;;;11.70;2.50;;;;;;;10.59;91.60;100156.79;51741;1312;1016076;-81
2022/10/25 04:53:22;;;;;;;11.10;3.00;;;;;;;10.60;92.09;100158.95;51907;1296;1016202;-81
2022/10/25 04:55:58;;;;;;;13.50;3.00;;;;;;;10.62;92.31;100159.11;51699;1312;1016373;-81
2022/10/25 04:58:30;;;;;;;11.80;3.00;;;;;;;10.65;92.62;100163.88;51682;1293;1016574;-81
2022/10/25 05:01:03;;;;;;;10.30;2.80;;;;;;;10.67;93.02;100161.19;51871;1293;1021000;-81
2022/10/25 05:03:35;;;;;;;12.30;2.80;;;;;;;10.70;92.95;100162.49;51852;1312;1016643;-81
2022/10/25 05:06:12;;;;;;;14.50;3.90;;;;;;;10.73;93.56;100163.98;51899;1299;1016145;-81
2022/10/25 05:08:47;;;;;;;9.60;3.00;;;;;;;10.78;93.64;100164.36;51751;1299;1016002;-81
2022/10/25 05:11:22;;;;;;;15.80;3.30;;;;;;;10.81;93.85;100163.30;51787;1286;1015715;-81
2022/10/25 05:14:01;;;;;;;10.50;3.10;;;;;;;10.84;93.77;100167.41;51694;1311;1016465;-80
2022/10/25 05:16:34;;;;;;;9.90;3.10;;;;;;;10.86;93.79;100167.41;51658;1315;1015727;-81
2022/10/25 05:19:07;;;;;;;11.30;2.70;;;;;;;10.88;93.93;100171.64;51867;1286;1016180;-80
2022/10/25 05:21:41;;;;;;;15.40;3.60;;;;;;;10.88;93.81;100170.39;51803;1294;1015574;-82
2022/10/25 05:24:12;;;;;;;10.90;3.20;;;;;;;10.90;94.07;100175.73;51816;1294;1016131;-82
2022/10/25 05:26:45;;;;;;;10.60;3.70;;;;;;;10.91;93.93;100175.86;51981;1294;1019300;-81
2022/10/25 05:29:19;;;;;;;14.60;3.90;;;;;;;10.91;94.20;100181.40;51730;1299;1018606;-81
2022/10/25 05:31:50;;;;;;;9.20;3.50;;;;;;;10.94;94.36;100179.04;51864;1305;1016155;-81
2022/10/25 05:34:22;;;;;;;12.00;4.10;;;;;;;10.95;94.70;100179.89;51918;1299;1016535;-82
2022/10/25 05:36:54;;;;;;;13.90;4.00;;;;;;;10.97;94.77;100183.17;51704;1310;1016352;-82
2022/10/25 05:39:25;;;;;;;12.70;3.50;;;;;;;11.00;95.04;100189.71;51672;1312;1017255;-81
2022/10/25 05:41:57;;;;;;;10.20;3.60;;;;;;;11.02;95.11;100189.65;51766;1312;1016283;-82
2022/10/25 05:44:28;;;;;;;12.60;4.10;;;;;;;11.05;95.20;100189.02;51965;1312;1016716;-83
2022/10/25 05:47:00;;;;;;;20.00;4.50;;;;;;;11.07;95.31;100183.73;51608;1305;1016551;-81
2022/10/25 05:49:31;;;;;;;12.80;4.20;;;;;;;11.09;95.36;100187.18;51669;1315;1016223;-81
2022/10/25 05:52:03;;;;;;;12.70;5.10;;;;;;;11.11;95.46;100189.65;51911;1301;1016896;-84
2022/10/25 05:54:34;;;;;;;11.50;3.30;;;;;;;11.11;95.42;100189.48;51885;1304;1016872;-82
2022/10/25 05:57:07;;;;;;;13.80;3.60;;;;;;;11.11;95.40;100194.57;51928;1295;1016558;-82
2022/10/25 05:59:38;;;;;;;14.40;4.30;;;;;;;11.12;95.42;100197.39;51605;1303;1016192;-81
2022/10/25 06:02:11;;;;;;;14.90;4.70;;;;;;;11.14;95.40;100198.23;51941;1312;1015452;-79
2022/10/25 06:04:42;;;;;;;15.70;5.20;;;;;;;11.16;95.59;100197.73;51682;1312;1016383;-79
2022/10/25 06:07:13;;;;;;;12.50;4.20;;;;;;;11.17;95.60;100205.23;51506;1309;1016753;-79
2022/10/25 06:09:46;;;;;;;13.40;4.60;;;;;;;11.19;95.72;100209.07;51437;1315;1019234;-79
2022/10/25 06:12:17;;;;;;;14.20;4.50;;;;;;;11.20;95.60;100210.86;51530;1310;1016253;-79
2022/10/25 06:14:48;;;;;;;13.00;4.70;;;;;;;11.20;95.87;100214.08;51455;1313;1016310;-80
2022/10/25 06:17:20;;;;;;;15.10;5.60;;;;;;;11.22;96.02;100219.95;51390;1312;1016436;-80
2022/10/25 06:19:51;;;;;;;14.30;5.40;;;;;;;11.23;96.13;100219.67;51566;1299;1018070;-79
2022/10/25 06:22:23;;;;;;;13.20;4.20;;;;;;;11.27;96.35;100225.56;51429;1309;1016348;-79
2022/10/25 06:24:55;;;;;;;14.10;4.90;;;;;;;11.28;96.29;100230.16;51540;1311;1016237;-80
2022/10/25 06:27:27;;;;;;;13.70;4.90;;;;;;;11.31;96.47;100240.88;51678;1315;1016329;-81
2022/10/25 06:29:59;;;;;;;13.00;5.10;;;;;;;11.33;96.42;100244.52;51707;1307;1016071;-80
2022/10/25 06:32:35;;;;;;;16.70;5.10;;;;;;;11.35;96.30;100248.96;51503;1312;1016704;-80
2022/10/25 06:35:09;;;;;;;12.90;5.30;;;;;;;11.36;96.53;100254.88;51687;1294;1016284;-81
2022/10/25 06:37:42;;;;;;;14.50;5.40;;;;;;;11.38;96.61;100257.73;51630;1312;1016176;-79
2022/10/25 06:40:14;;;;;;;18.40;6.80;;;;;;;11.38;96.43;100261.15;51768;1314;1016309;-80
2022/10/25 06:42:46;;;;;;;15.40;6.00;;;;;;;11.39;96.38;100257.48;51651;1312;1016416;-80
2022/10/25 06:45:17;;;;;;;17.70;6.10;;;;;;;11.39;96.43;100259.18;51664;1299;1016398;-80
2022/10/25 06:47:48;;;;;;;14.10;5.90;;;;;;;11.41;96.60;100260.14;51714;1304;1016489;-80
2022/10/25 06:50:19;;;;;;;14.10;6.30;;;;;;;11.41;96.65;100260.04;51635;1315;1016197;-80
2022/10/25 06:52:51;;;;;;;17.40;6.20;;;;;;;11.43;96.40;100262.20;51727;1309;1017075;-80
2022/10/25 06:55:22;;;;;;;17.10;6.70;;;;;;;11.44;96.76;100265.81;51669;1311;1016212;-80
2022/10/25 06:57:58;;;;;;;20.40;8.50;;;;;;;11.45;96.95;100268.70;51627;1311;1016027;-80
2022/10/25 07:00:30;;;;;;;23.60;8.80;;;;;;;11.47;97.17;100265.78;51679;1308;1016266;-80
2022/10/25 07:03:02;;;;;;;22.60;8.00;;;;;;;11.50;97.46;100266.63;51796;1312;1016371;-79
2022/10/25 07:05:34;;;;;;;17.20;7.50;;;;;;;11.54;97.63;100269.05;51729;1312;1017506;-80
2022/10/25 07:08:05;;;;;;;22.80;7.30;;;;;;;11.59;97.98;100266.80;51776;1312;1016206;-80
2022/10/25 07:10:36;;;;;;;18.10;7.00;;;;;;;11.64;98.06;100265.69;51645;1315;1016323;-79
2022/10/25 07:13:08;;;;;;;23.30;8.90;;;;;;;11.71;98.48;100268.91;51645;1315;1016006;-83
2022/10/25 07:15:39;;;;;;;21.00;8.70;;;;;;;11.80;98.91;100269.70;51665;1314;1017879;-80
2022/10/25 07:18:11;;;;;;;21.40;7.90;;;;;;;11.90;99.24;100268.06;51656;1299;1018711;-80
2022/10/25 07:20:47;;;;;;;19.40;7.90;;;;;;;12.00;99.46;100267.95;51586;1310;1016083;-80
2022/10/25 07:23:18;;;;;;;19.00;9.00;;;;;;;12.12;99.62;100271.58;51585;1310;1016388;-80
2022/10/25 07:25:50;;;;;;;18.90;7.60;;;;;;;12.23;99.86;100269.39;51758;1310;1016373;-80
2022/10/25 07:28:22;;;;;;;17.30;7.40;;;;;;;12.35;99.90;100269.48;51627;1307;1016561;-80
2022/10/25 07:30:53;;;;;;;17.30;6.40;;;;;;;12.48;99.90;100277.63;51597;1310;1018273;-80
2022/10/25 07:33:24;;;;;;;21.70;7.00;;;;;;;12.58;99.89;100276.22;51761;1300;1016298;-79
2022/10/25 07:35:56;;;;;;;14.30;5.80;;;;;;;12.69;99.95;100277.20;51765;1310;1016269;-80
2022/10/25 07:38:27;;;;;;;15.00;6.50;;;;;;;12.79;99.93;100275.22;51639;1310;1016913;-80
2022/10/25 07:40:59;;;;;;;20.70;6.10;;;;;;;12.87;99.72;100275.35;51731;1310;1016427;-80
2022/10/25 07:43:31;;;;;;;14.80;5.20;;;;;;;12.95;99.60;100276.15;51748;1310;1017465;-80
2022/10/25 07:46:02;;;;;;;13.60;5.30;;;;;;;13.02;99.53;100272.41;51695;1310;1016199;-80
2022/10/25 07:48:33;;;;;;;14.40;5.10;;;;;;;13.09;99.55;100272.44;51606;1307;1016495;-80
2022/10/25 07:51:11;;;;;;;13.80;5.40;;;;;;;13.16;99.68;100271.08;51788;1311;1015981;-80
2022/10/25 07:53:43;;;;;;;12.60;4.60;;;;;;;13.23;99.50;100272.00;51717;1310;1016024;-80
2022/10/25 07:56:18;;;;;;;18.10;6.00;;;;;;;13.29;99.58;100277.88;51899;1286;1016146;-80
2022/10/25 07:58:49;;;;;;;17.20;5.20;;;;;;;13.35;99.54;100281.71;51800;1310;1016124;-81
2022/10/25 08:01:23;;;;;;;15.60;4.60;;;;;;;13.41;99.61;100285.56;51671;1310;1016385;-80
2022/10/25 08:03:55;;;;;;;11.50;3.80;;;;;;;13.48;99.57;100284.40;51466;1310;1016518;-79
2022/10/25 08:06:27;;;;;;;16.40;4.50;;;;;;;13.55;99.66;100288.04;51521;1309;1016486;-79
2022/10/25 08:09:00;;;;;;;11.90;4.40;;;;;;;13.62;99.60;100290.17;51467;1291;1016158;-79
2022/10/25 08:11:32;;;;;;;12.90;4.50;;;;;;;13.70;99.67;100289.87;51590;1294;1016164;-79
2022/10/25 08:14:04;;;;;;;10.40;3.20;;;;;;;13.76;99.66;100294.40;51563;1310;1016269;-79
2022/10/25 08:16:35;;;;;;;15.00;4.10;;;;;;;13.83;99.64;100292.86;51543;1310;1015984;-79
2022/10/25 08:19:06;;;;;;;13.60;4.10;;;;;;;13.90;99.70;100298.84;51460;1310;1016188;-80
2022/10/25 08:21:38;;;;;;;13.00;4.10;;;;;;;13.97;99.80;100299.89;51569;1291;1016295;-80
2022/10/25 08:24:10;;;;;;;11.90;3.90;;;;;;;14.04;99.88;100298.63;51490;1307;1015582;-79
2022/10/25 08:26:41;;;;;;;15.40;3.60;;;;;;;14.10;99.90;100291.86;51441;1309;1016488;-80
2022/10/25 08:29:12;;;;;;;12.60;4.00;;;;;;;14.16;99.76;100290.30;51580;1310;1016475;-81
2022/10/25 08:31:44;;;;;;;19.30;6.50;;;;;;;14.20;99.80;100286.55;51516;1310;1015952;-79
2022/10/25 08:34:16;;;;;;;13.60;4.80;;;;;;;14.24;99.81;100289.33;51571;1310;1016558;-82
2022/10/25 08:36:50;;;;;;;9.00;3.10;;;;;;;14.29;99.59;100291.71;51507;1309;1016562;-79
2022/10/25 08:39:21;;;;;;;9.90;3.10;;;;;;;14.35;99.55;100293.74;51465;1310;1015499;-79
2022/10/25 08:41:57;;;;;;;11.20;2.90;;;;;;;14.43;99.75;100293.99;51536;1310;1016481;-81
2022/10/25 08:44:40;;;;;;;12.70;3.50;;;;;;;14.53;99.68;100293.07;51576;1310;1015693;-81
2022/10/25 08:47:17;;;;;;;8.40;2.60;;;;;;;14.65;99.32;100292.55;51460;1310;1016797;-82
2022/10/25 08:49:56;;;;;;;12.20;3.10;;;;;;;14.73;98.56;100295.89;51597;1310;1016308;-80
2022/10/25 08:52:31;;;;;;;10.80;2.30;;;;;;;14.81;98.42;100293.56;51495;1308;1018527;-79
2022/10/25 08:55:10;;;;;;;7.60;2.40;;;;;;;14.88;98.34;100296.64;51589;1310;1020291;-82
2022/10/25 08:57:45;;;;;;;9.70;2.50;;;;;;;14.99;98.15;100298.25;51452;1310;1015899;-80
2022/10/25 09:00:21;;;;;;;10.80;2.40;;;;;;;15.07;97.71;100300.98;51699;1304;1016337;-80
2022/10/25 09:02:54;;;;;;;7.70;1.70;;;;;;;15.13;97.36;100300.42;51564;1294;1015841;-79
2022/10/25 09:05:37;;;;;;;13.20;2.30;;;;;;;15.21;96.70;100309.78;51577;1309;1016303;-80
2022/10/25 09:08:33;;;;;;;8.50;1.80;;;;;;;15.26;96.48;100304.63;51890;1310;1016048;-81
2022/10/25 09:11:15;;;;;;;8.30;1.50;;;;;;;15.32;96.27;100300.19;51912;1310;1016479;-80
2022/10/25 09:13:54;;;;;;;8.20;2.30;;;;;;;15.35;95.73;100303.30;51727;1310;1016306;-80
2022/10/25 09:16:32;;;;;;;10.80;2.90;;;;;;;15.38;95.71;100303.11;51499;1311;1015985;-80
2022/10/25 09:19:11;;;;;;;8.20;1.90;;;;;;;15.41;95.69;100304.34;51487;1310;1016547;-80
2022/10/25 09:21:48;;;;;;;8.90;1.90;;;;;;;15.45;95.46;100308.72;51833;1310;1016135;-80
2022/10/25 09:24:24;;;;;;;7.30;1.50;;;;;;;15.50;95.19;100307.39;51610;1303;1015791;-80
2022/10/25 09:27:05;;;;;;;7.90;1.70;;;;;;;15.55;94.60;100313.21;51546;1310;1016329;-81
2022/10/25 09:29:41;;;;;;;11.20;1.40;;;;;;;15.60;93.95;100310.81;51603;1309;1015657;-80
2022/10/25 09:32:22;;;;;;;5.00;1.50;;;;;;;15.65;93.44;100315.20;51567;1294;1016693;-80
2022/10/25 09:34:55;;;;;;;7.10;1.00;;;;;;;15.70;92.76;100313.98;51543;1310;1015715;-81
2022/10/25 09:37:32;;;;;;;7.50;1.20;;;;;;;15.73;92.24;100314.54;51681;1310;1016117;-82
2022/10/25 09:40:10;;;;;;;6.30;0.90;;;;;;;15.76;91.69;100318.94;51721;1310;1016332;-80
2022/10/25 09:42:46;;;;;;;5.20;0.90;;;;;;;15.77;91.14;100322.45;51666;1304;1016357;-81
2022/10/25 09:45:27;;;;;;;8.20;1.00;;;;;;;15.76;90.20;100322.98;51741;1310;1016246;-81
2022/10/25 09:48:07;;;;;;;4.10;0.70;;;;;;;15.75;89.21;100324.66;51541;1311;1019874;-81
2022/10/25 09:50:44;;;;;;;6.30;0.80;;;;;;;15.71;88.69;100318.18;51553;1292;1018457;-81
2022/10/25 09:53:18;;;;;;;4.70;0.70;;;;;;;15.65;88.73;100320.44;51482;1309;1016228;-80
2022/10/25 09:55:54;;;;;;;7.90;1.30;;;;;;;15.59;88.70;100330.00;51672;1310;1019800;-80
2022/10/25 09:58:29;;;;;;;8.30;1.50;;;;;;;15.52;88.59;100329.19;51674;1310;1015718;-80
2022/10/25 10:01:04;;;;;;;6.60;1.20;;;;;;;15.47;88.70;100328.05;51690;1310;1015990;-80
2022/10/25 10:03:37;;;;;;;7.20;0.70;;;;;;;15.41;88.17;100325.11;51575;1310;1016249;-81
2022/10/25 10:06:18;;;;;;;7.20;0.90;;;;;;;15.37;87.97;100329.03;51748;1310;1016408;-81
2022/10/25 10:08:54;;;;;;;6.50;1.00;;;;;;;15.32;87.99;100324.89;51586;1309;1016510;-81
2022/10/25 10:11:28;;;;;;;10.70;1.00;;;;;;;15.28;87.92;100321.52;51553;1309;1015855;-78
2022/10/25 10:14:06;;;;;;;9.90;0.90;;;;;;;15.29;87.95;100322.73;51523;1309;1016114;-79
2022/10/25 10:16:44;;;;;;;5.40;0.60;;;;;;;15.32;87.63;100322.23;51580;1310;1016369;-78
2022/10/25 10:19:18;;;;;;;5.30;0.50;;;;;;;15.36;87.33;100321.82;51566;1309;1016405;-78
2022/10/25 10:21:52;;;;;;;7.70;1.00;;;;;;;15.41;87.26;100318.29;51565;1310;1015982;-77
2022/10/25 10:24:28;;;;;;;9.90;0.80;;;;;;;15.45;87.03;100311.39;51550;1311;1016167;-77
2022/10/25 10:27:01;;;;;;;9.00;0.80;;;;;;;15.50;86.88;100311.53;51706;1294;1017235;-77
2022/10/25 10:29:35;;;;;;;5.90;0.70;;;;;;;15.54;86.38;100314.86;51596;1309;1017845;-78
2022/10/25 10:32:23;;;;;;;3.70;0.60;;;;;;;15.59;85.97;100321.71;51708;1304;1016081;-78
2022/10/25 10:34:57;;;;;;;6.40;0.70;;;;;;;15.63;85.83;100319.20;51593;1310;1016542;-78
2022/10/25 10:37:31;;;;;;;5.90;0.60;;;;;;;15.68;85.61;100318.90;51662;1310;1016829;-78
2022/10/25 10:40:22;;;;;;;8.60;0.80;;;;;;;15.72;85.55;100316.75;51891;1310;1016870;-78
2022/10/25 10:42:53;;;;;;;5.50;0.70;;;;;;;15.78;85.34;100317.15;51501;1304;1016571;-79
2022/10/25 10:45:24;;;;;;;10.20;1.00;;;;;;;15.84;85.05;100317.45;51532;1283;1015940;-78
2022/10/25 10:47:59;;;;;;;7.20;1.10;;;;;;;15.89;85.00;100313.45;51533;1311;1016401;-79
2022/10/25 10:50:34;;;;;;;3.50;0.80;;;;;;;15.95;84.73;100320.60;51615;1294;1016290;-78
2022/10/25 10:53:08;;;;;;;4.70;0.60;;;;;;;15.97;84.34;100320.39;51479;1310;1016490;-78
2022/10/25 10:55:47;;;;;;;7.70;0.70;;;;;;;15.99;84.09;100325.67;51529;1310;1016025;-78
2022/10/25 10:58:22;;;;;;;5.40;0.70;;;;;;;16.00;84.19;100321.77;51681;1292;1015700;-78
2022/10/25 11:00:57;;;;;;;8.10;0.80;;;;;;;16.03;83.95;100324.90;51623;1309;1016331;-78
2022/10/25 11:03:46;;;;;;;10.90;0.90;;;;;;;16.07;83.80;100323.16;51799;1310;1016384;-78
2022/10/25 11:06:25;;;;;;;3.10;0.60;;;;;;;16.12;82.99;100321.61;51972;1288;1016005;-78
2022/10/25 11:09:15;;;;;;;5.80;0.60;;;;;;;16.20;82.97;100323.42;51852;1310;1016119;-78
2022/10/25 11:12:04;;;;;;;3.20;0.60;;;;;;;16.36;82.80;100326.20;51570;1310;1016562;-78
2022/10/25 11:14:37;;;;;;;5.70;0.60;;;;;;;16.55;82.56;100322.52;51625;1285;1016213;-78
2022/10/25 11:17:15;;;;;;;6.60;0.60;;;;;;;16.72;81.66;100320.65;51461;1310;1015682;-77
2022/10/25 11:20:03;;;;;;;3.90;0.50;;;;;;;16.85;81.29;100324.94;51277;1311;1016854;-78
2022/10/25 11:23:03;;;;;;;3.90;0.60;;;;;;;16.94;80.83;100325.05;51646;1310;1016066;-78
2022/10/25 11:25:41;;;;;;;4.50;0.50;;;;;;;16.99;79.50;100322.46;51484;1317;1017863;-78
2022/10/25 11:28:30;;;;;;;9.20;0.70;;;;;;;17.03;78.57;100329.26;51579;1309;1016152;-78
2022/10/25 11:31:15;;;;;;;3.50;0.50;;;;;;;17.09;78.60;100328.86;51460;1317;1016996;-79
2022/10/25 11:34:00;;;;;;;3.90;0.70;;;;;;;17.17;78.62;100325.89;51408;1285;1016562;-78
2022/10/25 11:36:51;;;;;;;7.10;0.80;;;;;;;17.29;77.89;100330.48;51602;1317;1016036;-78
2022/10/25 11:39:37;;;;;;;12.50;1.10;;;;;;;17.41;77.38;100330.65;51468;1313;1016433;-79